createdAt,value
2023-03-03T00:02:10.924Z,280.40
2023-03-03T00:10:34.165Z,259.00
2023-03-03T00:18:58.205Z,204.80
2023-03-03T00:27:30.868Z,248.40
2023-03-03T00:35:54.518Z,246.60
2023-03-03T00:44:42.358Z,153.20
2023-03-03T00:53:06.866Z,172.20
2023-03-03T01:01:30.054Z,183.20
2023-03-03T01:09:53.232Z,159.70
2023-03-03T01:18:17.311Z,194.40
2023-03-03T01:26:42.523Z,167.50
2023-03-03T01:35:06.134Z,137.80
2023-03-03T01:43:34.131Z,168.30
2023-03-03T01:52:01.298Z,159.60
2023-03-03T02:00:24.694Z,185.60
2023-03-03T02:08:50.503Z,142.30
2023-03-03T02:17:13.626Z,213.50
2023-03-03T02:25:59.202Z,221.10
2023-03-03T02:34:25.605Z,188.90
2023-03-03T02:42:52.679Z,171.90
2023-03-03T02:51:16.397Z,183.60
2023-03-03T02:59:39.619Z,209.40
2023-03-03T03:08:06.417Z,166.20
2023-03-03T03:16:29.753Z,175.00
2023-03-03T03:24:53.078Z,146.30
2023-03-03T03:33:21.259Z,139.80
2023-03-03T03:41:44.843Z,97.90
2023-03-03T03:50:09.831Z,100.70
2023-03-03T03:58:33.084Z,112.80
2023-03-03T04:06:59.688Z,98.20
2023-03-03T04:15:23.105Z,86.90
2023-03-03T04:23:46.637Z,90.80
2023-03-03T04:32:10.314Z,96.20
2023-03-03T04:40:34.008Z,106.50
2023-03-03T04:48:58.081Z,89.00
2023-03-03T04:57:22.516Z,103.60
2023-03-03T05:05:47.420Z,88.00
2023-03-03T05:14:10.788Z,93.80
2023-03-03T05:22:34.996Z,93.30
2023-03-03T05:30:58.112Z,90.40
2023-03-03T05:39:21.315Z,91.00
2023-03-03T05:47:44.285Z,104.00
2023-03-03T05:56:08.002Z,118.90
2023-03-03T06:04:31.128Z,89.70
2023-03-03T06:12:55.195Z,103.60
2023-03-03T06:21:18.626Z,86.50
2023-03-03T06:29:41.793Z,89.70
2023-03-03T06:38:05.017Z,67.50
2023-03-03T06:46:28.568Z,105.30
2023-03-03T06:54:57.234Z,91.10
2023-03-03T07:03:24.653Z,89.30
2023-03-03T07:11:48.119Z,111.20
2023-03-03T07:20:25.433Z,103.40
2023-03-03T07:28:58.496Z,98.20
2023-03-03T07:37:24.479Z,90.90
2023-03-03T07:45:47.658Z,102.10
2023-03-03T07:54:38.240Z,75.30
2023-03-03T08:03:05.043Z,127.10
2023-03-03T08:11:28.372Z,103.30
2023-03-03T08:19:53.455Z,88.90
2023-03-03T08:28:34.616Z,68.90
2023-03-03T08:36:58.694Z,95.00
2023-03-03T08:45:22.121Z,70.80
2023-03-03T08:53:45.305Z,67.00
2023-03-03T09:02:09.108Z,66.50
2023-03-03T09:10:32.918Z,82.70
2023-03-03T09:18:57.322Z,60.80
2023-03-03T09:27:34.854Z,69.20
2023-03-03T09:36:28.699Z,70.00
2023-03-03T09:45:29.240Z,78.40
2023-03-03T09:54:05.558Z,58.50
2023-03-03T10:02:58.979Z,85.30
2023-03-03T10:11:58.958Z,65.10
2023-03-03T10:21:10.267Z,73.00
2023-03-03T10:29:51.489Z,215.30
2023-03-03T10:38:35.560Z,226.90
2023-03-03T10:47:12.881Z,139.10
2023-03-03T10:55:39.264Z,62.40
2023-03-03T11:04:05.447Z,52.80
2023-03-03T11:13:03.311Z,56.70
2023-03-03T11:21:34.889Z,58.30
2023-03-03T11:30:12.776Z,55.20
2023-03-03T11:38:54.542Z,63.40
2023-03-03T11:47:25.735Z,55.10
2023-03-03T11:55:56.831Z,54.00
2023-03-03T12:04:32.308Z,54.20
2023-03-03T12:13:14.772Z,52.70
2023-03-03T12:21:55.764Z,52.50
2023-03-03T12:30:24.520Z,50.10
2023-03-03T12:39:35.152Z,67.40
2023-03-03T12:48:06.831Z,69.30
2023-03-03T12:56:44.989Z,77.80
2023-03-03T13:05:22.365Z,70.30
2023-03-03T13:13:59.891Z,76.40
2023-03-03T13:22:45.806Z,122.50
2023-03-03T13:31:15.711Z,74.70
2023-03-03T13:39:49.179Z,74.50
2023-03-03T13:48:47.588Z,81.40
2023-03-03T13:57:16.315Z,141.40
2023-03-03T14:05:46.538Z,71.10
2023-03-03T14:14:28.229Z,59.20
2023-03-03T14:22:55.506Z,125.70
2023-03-03T14:31:41.240Z,98.60
2023-03-03T14:40:32.663Z,72.00
2023-03-03T14:48:59.493Z,55.00
2023-03-03T14:57:51.519Z,84.10
2023-03-03T15:06:58.962Z,56.10
2023-03-03T15:15:25.639Z,57.90
2023-03-03T15:24:32.511Z,54.30
2023-03-03T15:33:10.874Z,49.90
2023-03-03T15:41:45.610Z,81.30
2023-03-03T15:50:28.905Z,67.10
2023-03-03T15:58:58.788Z,53.50
2023-03-03T16:07:39.488Z,60.40
2023-03-03T16:16:34.467Z,65.60
2023-03-03T16:25:34.666Z,54.10
2023-03-03T16:34:12.326Z,80.10
2023-03-03T16:42:35.698Z,72.60
2023-03-03T16:51:12.032Z,62.80
2023-03-03T16:59:41.808Z,60.20
2023-03-03T17:08:37.162Z,55.80
2023-03-03T17:17:04.843Z,55.30
2023-03-03T17:26:12.351Z,65.20
2023-03-03T17:35:07.119Z,57.80
2023-03-03T17:43:58.072Z,47.80
2023-03-03T17:52:39.101Z,40.80
2023-03-03T18:01:22.385Z,48.70
2023-03-03T18:09:56.932Z,46.90
2023-03-03T18:18:32.519Z,62.00
2023-03-03T18:26:56.517Z,45.40
2023-03-03T18:35:38.537Z,60.10
2023-03-03T18:52:29.920Z,48.90
2023-03-03T19:01:00.019Z,52.60
2023-03-03T19:09:44.735Z,56.40
2023-03-03T19:18:15.142Z,56.60
2023-03-03T19:26:54.711Z,48.70
2023-03-03T19:35:31.155Z,60.20
2023-03-03T19:44:22.801Z,53.90
2023-03-03T19:53:09.100Z,67.60
2023-03-03T20:01:58.008Z,40.90
2023-03-03T20:10:59.189Z,56.80
2023-03-03T20:19:29.777Z,45.30
2023-03-03T20:28:10.457Z,45.20
2023-03-03T20:36:48.815Z,52.30
2023-03-03T20:45:11.982Z,38.40
2023-03-03T20:53:56.881Z,49.30
2023-03-03T21:02:38.531Z,51.90
2023-03-03T21:11:03.752Z,50.20
2023-03-03T21:19:34.923Z,48.50
2023-03-03T21:28:17.085Z,42.00
2023-03-03T21:36:40.156Z,41.40
2023-03-03T21:45:11.022Z,47.80
2023-03-03T21:53:34.073Z,47.80
2023-03-03T22:01:57.353Z,67.90
2023-03-03T22:10:20.396Z,72.70
2023-03-03T22:18:43.461Z,83.70
2023-03-03T22:35:54.950Z,40.80
2023-03-03T22:44:20.341Z,79.70
2023-03-03T22:52:43.504Z,55.50
2023-03-03T23:01:06.673Z,63.90
2023-03-03T23:09:29.665Z,62.10
2023-03-03T23:17:53.847Z,61.00
2023-03-03T23:26:17.586Z,66.00
2023-03-03T23:34:41.371Z,61.90
2023-03-03T23:43:04.352Z,52.20
2023-03-03T23:51:27.580Z,76.10
2023-03-03T23:59:50.610Z,70.80
